createdAt,value
2022-11-08T00:00:47.557Z,90.16
2022-11-08T00:01:44.161Z,89.83
2022-11-08T00:02:40.848Z,89.33
2022-11-08T00:03:37.425Z,89.51
2022-11-08T00:04:34.789Z,89.82
2022-11-08T00:05:49.895Z,90.18
2022-11-08T00:07:05.696Z,90.17
2022-11-08T00:08:21.745Z,90.48
2022-11-08T00:09:36.767Z,90.40
2022-11-08T00:10:51.890Z,90.18
2022-11-08T00:12:06.951Z,90.73
2022-11-08T00:13:24.807Z,90.83
2022-11-08T00:14:21.232Z,90.45
2022-11-08T00:15:17.783Z,90.62
2022-11-08T00:16:14.241Z,90.67
2022-11-08T00:17:10.801Z,91.12
2022-11-08T00:18:07.552Z,91.33
2022-11-08T00:19:04.035Z,91.75
2022-11-08T00:20:00.602Z,91.87
2022-11-08T00:21:00.811Z,91.80
2022-11-08T00:21:57.320Z,91.33
2022-11-08T00:22:53.876Z,91.09
2022-11-08T00:23:50.372Z,90.84
2022-11-08T00:24:47.161Z,90.78
2022-11-08T00:25:43.604Z,90.62
2022-11-08T00:26:40.096Z,90.67
2022-11-08T00:27:36.585Z,91.07
2022-11-08T00:28:33.081Z,91.41
2022-11-08T00:29:29.702Z,91.54
2022-11-08T00:30:26.237Z,91.65
2022-11-08T00:31:22.694Z,91.40
2022-11-08T00:32:23.507Z,91.93
2022-11-08T00:33:19.994Z,92.10
2022-11-08T00:34:16.494Z,92.18
2022-11-08T00:35:13.745Z,92.31
2022-11-08T00:36:10.297Z,92.75
2022-11-08T00:37:06.803Z,93.03
2022-11-08T00:38:04.250Z,93.00
2022-11-08T00:39:00.718Z,93.32
2022-11-08T00:39:57.188Z,93.34
2022-11-08T00:40:53.683Z,92.69
2022-11-08T00:41:50.167Z,92.38
2022-11-08T00:42:46.674Z,91.53
2022-11-08T00:43:43.174Z,91.25
2022-11-08T00:44:39.685Z,91.53
2022-11-08T00:45:36.122Z,91.67
2022-11-08T00:46:32.567Z,91.47
2022-11-08T00:47:29.056Z,91.28
2022-11-08T00:48:25.571Z,90.27
2022-11-08T00:49:22.244Z,89.15
2022-11-08T00:50:18.682Z,88.74
2022-11-08T00:51:15.133Z,89.14
2022-11-08T00:52:11.662Z,89.50
2022-11-08T00:53:08.178Z,90.31
2022-11-08T00:54:05.554Z,90.97
2022-11-08T00:55:02.055Z,90.85
2022-11-08T00:56:02.508Z,90.62
2022-11-08T00:56:59.031Z,89.64
2022-11-08T00:58:00.006Z,88.04
2022-11-08T00:58:57.788Z,86.96
2022-11-08T00:59:54.236Z,86.70
2022-11-08T01:00:50.718Z,87.23
2022-11-08T01:01:47.668Z,87.88
2022-11-08T01:02:44.243Z,88.18
2022-11-08T01:03:40.831Z,88.53
2022-11-08T01:04:37.300Z,89.33
2022-11-08T01:05:36.551Z,89.94
2022-11-08T01:06:32.999Z,90.20
2022-11-08T01:07:29.462Z,90.84
2022-11-08T01:08:25.976Z,90.30
2022-11-08T01:09:22.485Z,90.30
2022-11-08T01:10:18.942Z,89.65
2022-11-08T01:11:17.066Z,89.83
2022-11-08T01:12:13.510Z,89.95
2022-11-08T01:13:10.097Z,90.22
2022-11-08T01:14:06.740Z,89.66
2022-11-08T01:15:03.316Z,89.92
2022-11-08T01:16:05.486Z,89.91
2022-11-08T01:17:01.922Z,90.25
2022-11-08T01:17:58.374Z,89.67
2022-11-08T01:18:55.495Z,90.18
2022-11-08T01:19:51.957Z,90.70
2022-11-08T01:20:49.140Z,90.74
2022-11-08T01:21:45.758Z,91.55
2022-11-08T01:22:42.942Z,91.72
2022-11-08T01:23:39.694Z,91.84
2022-11-08T01:24:36.190Z,92.35
2022-11-08T01:25:35.426Z,92.32
2022-11-08T01:26:31.930Z,92.32
2022-11-08T01:27:28.358Z,92.26
2022-11-08T01:28:24.861Z,92.10
2022-11-08T01:29:21.320Z,91.91
2022-11-08T01:30:17.851Z,91.28
2022-11-08T01:31:19.046Z,90.52
2022-11-08T01:32:15.510Z,89.95
2022-11-08T01:33:12.408Z,88.94
2022-11-08T01:34:08.880Z,88.86
2022-11-08T01:35:05.746Z,88.79
2022-11-08T01:36:02.204Z,89.02
2022-11-08T01:36:58.779Z,89.26
2022-11-08T01:37:55.212Z,89.79
2022-11-08T01:38:52.101Z,89.86
2022-11-08T01:39:48.564Z,89.64
2022-11-08T01:40:46.426Z,90.20
2022-11-08T01:41:42.893Z,90.30
2022-11-08T01:42:39.721Z,90.01
2022-11-08T01:43:46.514Z,90.46
2022-11-08T01:44:57.406Z,90.59
2022-11-08T01:46:16.414Z,90.63
2022-11-08T01:47:12.933Z,90.95
2022-11-08T01:48:09.955Z,91.08
2022-11-08T01:49:06.443Z,91.25
2022-11-08T01:50:08.770Z,91.78
2022-11-08T01:51:07.007Z,92.19
2022-11-08T01:52:21.202Z,92.47
2022-11-08T01:53:17.722Z,92.53
2022-11-08T01:54:17.739Z,92.59
2022-11-08T01:55:18.679Z,92.47
2022-11-08T01:56:15.504Z,92.38
2022-11-08T01:57:14.837Z,92.86
2022-11-08T01:58:15.014Z,93.10
2022-11-08T01:59:12.584Z,92.92
2022-11-08T02:00:10.381Z,92.77
2022-11-08T02:01:07.004Z,93.07
2022-11-08T02:02:04.457Z,93.02
2022-11-08T02:03:01.706Z,92.85
2022-11-08T02:03:58.546Z,92.93
2022-11-08T02:04:55.227Z,93.02
2022-11-08T02:05:51.747Z,92.58
2022-11-08T02:06:48.659Z,92.75
2022-11-08T02:07:45.163Z,92.85
2022-11-08T02:08:42.627Z,93.12
2022-11-08T02:09:40.130Z,92.88
2022-11-08T02:10:38.038Z,93.27
2022-11-08T02:11:34.752Z,93.35
2022-11-08T02:12:31.222Z,93.86
2022-11-08T02:13:28.734Z,93.79
2022-11-08T02:14:25.158Z,93.41
2022-11-08T02:15:22.898Z,93.82
2022-11-08T02:16:19.352Z,93.61
2022-11-08T02:17:16.113Z,93.68
2022-11-08T02:18:13.300Z,93.93
2022-11-08T02:19:11.548Z,93.52
2022-11-08T02:20:08.214Z,93.56
2022-11-08T02:21:14.769Z,93.37
2022-11-08T02:22:24.830Z,93.32
2022-11-08T02:23:26.903Z,93.73
2022-11-08T02:24:23.474Z,93.56
2022-11-08T02:25:20.007Z,93.49
2022-11-08T02:26:17.873Z,93.50
2022-11-08T02:27:14.837Z,93.07
2022-11-08T02:28:11.298Z,92.90
2022-11-08T02:29:28.257Z,92.98
2022-11-08T02:30:24.778Z,93.03
2022-11-08T02:31:21.498Z,92.65
2022-11-08T02:32:18.029Z,92.93
2022-11-08T02:33:21.807Z,93.03
2022-11-08T02:34:18.782Z,93.29
2022-11-08T02:35:17.442Z,93.32
2022-11-08T02:36:15.682Z,93.44
2022-11-08T02:37:14.682Z,93.34
2022-11-08T02:38:11.177Z,93.50
2022-11-08T02:39:08.485Z,93.61
2022-11-08T02:40:05.740Z,93.78
2022-11-08T02:41:02.181Z,93.91
2022-11-08T02:41:58.866Z,93.62
2022-11-08T02:42:55.374Z,93.98
2022-11-08T02:43:51.817Z,93.92
2022-11-08T02:44:48.742Z,93.78
2022-11-08T02:45:45.448Z,93.85
2022-11-08T02:46:41.933Z,93.76
2022-11-08T02:47:38.391Z,93.73
2022-11-08T02:48:34.947Z,94.01
2022-11-08T02:49:31.642Z,93.71
2022-11-08T02:50:28.078Z,94.01
2022-11-08T02:51:24.525Z,93.89
2022-11-08T02:52:20.997Z,93.82
2022-11-08T02:53:17.692Z,93.92
2022-11-08T02:54:14.169Z,93.69
2022-11-08T02:55:10.716Z,93.47
2022-11-08T02:56:07.295Z,93.59
2022-11-08T02:57:03.736Z,93.25
2022-11-08T02:58:00.557Z,93.14
2022-11-08T02:58:57.246Z,92.98
2022-11-08T02:59:53.713Z,93.30
2022-11-08T03:00:50.212Z,93.34
2022-11-08T03:01:46.837Z,92.99
2022-11-08T03:02:43.441Z,93.02
2022-11-08T03:03:39.936Z,92.69
2022-11-08T03:04:36.494Z,92.69
2022-11-08T03:05:33.454Z,92.65
2022-11-08T03:06:29.962Z,92.75
2022-11-08T03:07:26.469Z,92.91
2022-11-08T03:08:22.960Z,92.38
2022-11-08T03:09:19.422Z,92.60
2022-11-08T03:10:16.181Z,92.28
2022-11-08T03:11:12.744Z,92.38
2022-11-08T03:12:09.205Z,92.65
2022-11-08T03:13:06.212Z,92.30
2022-11-08T03:14:02.803Z,91.80
2022-11-08T03:14:59.278Z,91.32
2022-11-08T03:15:55.753Z,90.53
2022-11-08T03:16:52.227Z,90.47
2022-11-08T03:17:48.719Z,90.37
2022-11-08T03:18:45.252Z,90.57
2022-11-08T03:19:41.756Z,91.27
2022-11-08T03:20:38.302Z,91.48
2022-11-08T03:21:36.530Z,91.48
2022-11-08T03:22:32.995Z,91.77
2022-11-08T03:23:29.504Z,91.64
2022-11-08T03:24:26.051Z,91.91
2022-11-08T03:25:22.525Z,91.90
2022-11-08T03:26:18.987Z,91.85
2022-11-08T03:27:15.460Z,91.96
2022-11-08T03:28:12.028Z,91.59
2022-11-08T03:29:08.535Z,91.93
2022-11-08T03:30:06.293Z,91.65
2022-11-08T03:31:02.740Z,91.97
2022-11-08T03:31:59.246Z,92.15
2022-11-08T03:32:55.761Z,92.03
2022-11-08T03:33:52.224Z,92.36
2022-11-08T03:34:48.731Z,92.24
2022-11-08T03:35:45.208Z,91.69
2022-11-08T03:36:41.699Z,91.97
2022-11-08T03:37:38.157Z,91.45
2022-11-08T03:38:34.687Z,91.87
2022-11-08T03:39:31.208Z,92.18
2022-11-08T03:40:27.754Z,92.06
2022-11-08T03:41:24.220Z,91.68
2022-11-08T03:42:20.694Z,91.41
2022-11-08T03:43:17.178Z,91.44
2022-11-08T03:44:13.899Z,91.77
2022-11-08T03:45:11.369Z,91.78
2022-11-08T03:46:07.821Z,91.87
2022-11-08T03:47:04.361Z,92.01
2022-11-08T03:48:00.974Z,91.69
2022-11-08T03:48:57.437Z,91.69
2022-11-08T03:49:53.953Z,91.43
2022-11-08T03:50:51.851Z,90.77
2022-11-08T03:51:48.381Z,90.46
2022-11-08T03:52:52.294Z,90.24
2022-11-08T03:53:48.831Z,89.87
2022-11-08T03:54:45.322Z,89.72
2022-11-08T03:55:41.793Z,89.54
2022-11-08T03:56:38.277Z,89.54
2022-11-08T03:57:34.719Z,89.83
2022-11-08T03:58:31.190Z,90.20
2022-11-08T03:59:27.700Z,90.33
2022-11-08T04:00:26.003Z,90.13
2022-11-08T04:01:22.501Z,90.78
2022-11-08T04:02:19.132Z,90.39
2022-11-08T04:03:15.714Z,90.07
2022-11-08T04:04:12.299Z,89.58
2022-11-08T04:05:09.689Z,89.89
2022-11-08T04:06:06.364Z,89.70
2022-11-08T04:07:02.870Z,90.67
2022-11-08T04:08:00.685Z,91.05
2022-11-08T04:08:57.224Z,90.51
2022-11-08T04:09:53.708Z,90.87
2022-11-08T04:10:50.183Z,90.79
2022-11-08T04:12:05.054Z,90.98
2022-11-08T04:13:20.072Z,90.91
2022-11-08T04:14:35.208Z,91.14
2022-11-08T04:15:31.854Z,91.14
2022-11-08T04:16:29.857Z,91.44
2022-11-08T04:17:46.315Z,91.58
2022-11-08T04:19:01.574Z,91.57
2022-11-08T04:20:16.593Z,91.83
2022-11-08T04:21:22.414Z,91.35
2022-11-08T04:22:18.891Z,90.92
2022-11-08T04:23:16.471Z,90.54
2022-11-08T04:24:13.193Z,90.00
2022-11-08T04:25:09.818Z,90.58
2022-11-08T04:26:07.835Z,90.75
2022-11-08T04:27:04.326Z,90.81
2022-11-08T04:28:00.769Z,91.08
2022-11-08T04:29:01.160Z,90.89
2022-11-08T04:29:57.605Z,90.95
2022-11-08T04:30:58.294Z,91.27
2022-11-08T04:31:54.755Z,91.41
2022-11-08T04:32:51.196Z,91.90
2022-11-08T04:33:47.658Z,92.32
2022-11-08T04:34:44.104Z,93.05
2022-11-08T04:35:40.556Z,93.09
2022-11-08T04:36:37.022Z,93.08
2022-11-08T04:37:33.471Z,93.15
2022-11-08T04:38:30.860Z,92.99
2022-11-08T04:39:27.290Z,92.95
2022-11-08T04:40:23.731Z,92.76
2022-11-08T04:41:24.178Z,91.98
2022-11-08T04:42:20.701Z,92.00
2022-11-08T04:43:17.162Z,91.11
2022-11-08T04:44:15.585Z,90.56
2022-11-08T04:45:12.079Z,90.49
2022-11-08T04:46:09.963Z,90.67
2022-11-08T04:47:06.533Z,89.90
2022-11-08T04:48:03.039Z,90.26
2022-11-08T04:49:00.017Z,90.92
2022-11-08T04:49:56.477Z,91.07
2022-11-08T04:50:52.975Z,91.40
2022-11-08T04:51:49.457Z,91.57
2022-11-08T04:52:51.563Z,91.59
2022-11-08T04:53:48.023Z,91.19
2022-11-08T04:54:45.458Z,91.24
2022-11-08T04:55:41.894Z,91.51
2022-11-08T04:56:38.369Z,91.23
2022-11-08T04:57:35.043Z,91.08
2022-11-08T04:58:35.267Z,91.62
2022-11-08T04:59:31.754Z,91.80
2022-11-08T05:00:28.262Z,91.74
2022-11-08T05:01:26.096Z,91.64
2022-11-08T05:02:22.812Z,91.21
2022-11-08T05:03:19.358Z,91.03
2022-11-08T05:04:15.884Z,90.99
2022-11-08T05:05:12.364Z,90.99
2022-11-08T05:06:13.336Z,91.48
2022-11-08T05:07:09.809Z,91.30
2022-11-08T05:08:06.545Z,91.37
2022-11-08T05:09:03.113Z,91.11
2022-11-08T05:10:02.330Z,90.81
2022-11-08T05:11:02.218Z,91.17
2022-11-08T05:11:58.647Z,90.83
2022-11-08T05:12:55.968Z,91.16
2022-11-08T05:13:52.683Z,91.16
2022-11-08T05:14:49.231Z,91.41
2022-11-08T05:15:45.713Z,91.80
2022-11-08T05:16:42.187Z,91.93
2022-11-08T05:17:38.726Z,91.93
2022-11-08T05:18:35.177Z,92.29
2022-11-08T05:19:50.561Z,92.82
2022-11-08T05:21:11.511Z,92.69
2022-11-08T05:22:26.903Z,92.93
2022-11-08T05:23:26.065Z,93.03
2022-11-08T05:24:22.539Z,92.59
2022-11-08T05:25:19.026Z,92.42
2022-11-08T05:26:16.549Z,92.38
2022-11-08T05:27:13.009Z,92.66
2022-11-08T05:28:09.442Z,92.09
2022-11-08T05:29:06.102Z,92.02
2022-11-08T05:30:02.714Z,91.99
2022-11-08T05:30:59.286Z,92.00
2022-11-08T05:31:55.745Z,91.82
2022-11-08T05:32:52.931Z,91.64
2022-11-08T05:33:49.432Z,91.54
2022-11-08T05:34:45.870Z,91.74
2022-11-08T05:35:42.418Z,92.17
2022-11-08T05:36:38.865Z,91.96
2022-11-08T05:37:35.280Z,92.59
2022-11-08T05:38:31.966Z,92.88
2022-11-08T05:39:32.091Z,92.75
2022-11-08T05:40:33.130Z,93.12
2022-11-08T05:41:30.314Z,93.32
2022-11-08T05:42:26.822Z,93.51
2022-11-08T05:43:23.266Z,93.71
2022-11-08T05:44:19.693Z,93.63
2022-11-08T05:45:16.244Z,93.73
2022-11-08T05:46:12.886Z,93.40
2022-11-08T05:47:09.373Z,93.44
2022-11-08T05:48:06.177Z,93.60
2022-11-08T05:49:03.195Z,93.71
2022-11-08T05:49:59.684Z,93.70
2022-11-08T05:50:56.358Z,93.66
2022-11-08T05:51:52.830Z,93.77
2022-11-08T05:52:49.361Z,93.41
2022-11-08T05:53:48.594Z,93.00
2022-11-08T05:54:45.261Z,92.06
2022-11-08T05:55:41.857Z,91.53
2022-11-08T05:56:38.410Z,91.19
2022-11-08T05:57:34.912Z,91.33
2022-11-08T05:58:32.570Z,90.77
2022-11-08T05:59:29.154Z,90.63
2022-11-08T06:00:25.651Z,90.83
2022-11-08T06:01:22.232Z,90.75
2022-11-08T06:02:18.835Z,90.91
2022-11-08T06:03:19.703Z,90.63
2022-11-08T06:04:19.041Z,90.97
2022-11-08T06:05:15.604Z,91.35
2022-11-08T06:06:16.682Z,91.41
2022-11-08T06:07:13.158Z,91.34
2022-11-08T06:08:09.895Z,91.43
2022-11-08T06:09:06.349Z,91.37
2022-11-08T06:10:03.614Z,91.08
2022-11-08T06:11:07.419Z,90.89
2022-11-08T06:12:04.010Z,90.98
2022-11-08T06:13:03.682Z,91.14
2022-11-08T06:14:00.159Z,91.12
2022-11-08T06:14:56.643Z,91.28
2022-11-08T06:15:53.083Z,91.06
2022-11-08T06:16:49.518Z,91.27
2022-11-08T06:17:45.987Z,91.31
2022-11-08T06:18:42.614Z,91.39
2022-11-08T06:19:39.144Z,91.17
2022-11-08T06:20:35.582Z,90.94
2022-11-08T06:21:32.076Z,90.72
2022-11-08T06:22:31.007Z,90.83
2022-11-08T06:23:28.100Z,90.48
2022-11-08T06:24:24.582Z,90.45
2022-11-08T06:25:21.503Z,90.54
2022-11-08T06:26:17.927Z,90.32
2022-11-08T06:27:14.742Z,90.26
2022-11-08T06:28:13.207Z,90.52
2022-11-08T06:29:09.957Z,89.99
2022-11-08T06:30:06.759Z,89.65
2022-11-08T06:31:03.900Z,89.85
2022-11-08T06:32:00.451Z,89.86
2022-11-08T06:32:58.891Z,89.82
2022-11-08T06:33:55.372Z,90.01
2022-11-08T06:34:51.810Z,89.72
2022-11-08T06:35:48.278Z,89.63
2022-11-08T06:36:44.762Z,89.50
2022-11-08T06:37:41.217Z,89.81
2022-11-08T06:38:37.722Z,89.42
2022-11-08T06:39:34.262Z,89.56
2022-11-08T06:40:32.293Z,89.61
2022-11-08T06:41:30.037Z,89.45
2022-11-08T06:42:26.714Z,89.54
2022-11-08T06:43:23.555Z,89.83
2022-11-08T06:44:20.312Z,89.70
2022-11-08T06:45:16.898Z,89.56
2022-11-08T06:46:13.471Z,89.72
2022-11-08T06:47:09.986Z,89.89
2022-11-08T06:48:07.460Z,89.60
2022-11-08T06:49:03.940Z,89.54
2022-11-08T06:50:00.477Z,89.88
2022-11-08T06:50:56.917Z,89.69
2022-11-08T06:51:53.393Z,89.72
2022-11-08T06:52:55.596Z,89.73
2022-11-08T06:53:52.116Z,90.06
2022-11-08T06:54:48.598Z,89.96
2022-11-08T06:55:45.052Z,89.79
2022-11-08T06:56:41.539Z,89.66
2022-11-08T06:57:38.056Z,89.59
2022-11-08T06:58:34.687Z,89.96
2022-11-08T06:59:31.155Z,89.96
2022-11-08T07:00:28.103Z,89.59
2022-11-08T07:01:24.704Z,89.69
2022-11-08T07:02:21.389Z,89.53
2022-11-08T07:03:18.460Z,89.53
2022-11-08T07:04:15.197Z,89.45
2022-11-08T07:05:12.467Z,89.30
2022-11-08T07:06:09.019Z,89.23
2022-11-08T07:07:05.483Z,89.28
2022-11-08T07:08:02.377Z,89.17
2022-11-08T07:08:58.951Z,89.04
2022-11-08T07:09:59.490Z,89.10
2022-11-08T07:11:00.185Z,88.95
2022-11-08T07:11:56.798Z,88.80
2022-11-08T07:12:59.187Z,88.94
2022-11-08T07:13:55.718Z,88.87
2022-11-08T07:14:52.175Z,88.81
2022-11-08T07:15:48.738Z,88.63
2022-11-08T07:16:45.245Z,88.65
2022-11-08T07:17:41.829Z,88.69
2022-11-08T07:18:38.320Z,88.37
2022-11-08T07:19:34.865Z,88.45
2022-11-08T07:20:31.570Z,88.11
2022-11-08T07:21:28.033Z,88.00
2022-11-08T07:22:25.776Z,87.44
2022-11-08T07:23:22.587Z,87.26
2022-11-08T07:24:19.442Z,86.97
2022-11-08T07:25:16.069Z,86.72
2022-11-08T07:26:13.619Z,86.50
2022-11-08T07:27:10.073Z,86.16
2022-11-08T07:28:08.023Z,85.62
2022-11-08T07:29:04.484Z,85.64
2022-11-08T07:30:01.034Z,85.57
2022-11-08T07:30:59.225Z,84.93
2022-11-08T07:31:55.801Z,85.30
2022-11-08T07:32:52.668Z,84.92
2022-11-08T07:33:49.419Z,84.63
2022-11-08T07:34:45.864Z,84.91
2022-11-08T07:35:44.466Z,84.42
2022-11-08T07:36:41.033Z,84.20
2022-11-08T07:37:37.483Z,84.25
2022-11-08T07:38:33.975Z,83.33
2022-11-08T07:39:30.422Z,82.80
2022-11-08T07:40:26.938Z,82.43
2022-11-08T07:41:23.427Z,81.95
2022-11-08T07:42:19.879Z,82.28
2022-11-08T07:43:16.625Z,81.25
2022-11-08T07:44:13.146Z,81.10
2022-11-08T07:45:10.294Z,80.81
2022-11-08T07:46:06.825Z,79.39
2022-11-08T07:47:03.292Z,79.72
2022-11-08T07:48:02.643Z,79.91
2022-11-08T07:49:00.804Z,80.34
2022-11-08T07:49:57.275Z,80.14
2022-11-08T07:50:54.172Z,80.34
2022-11-08T07:51:50.648Z,80.38
2022-11-08T07:52:49.454Z,80.70
2022-11-08T07:53:45.983Z,81.46
2022-11-08T07:54:42.600Z,82.01
2022-11-08T07:55:40.214Z,82.19
2022-11-08T07:56:36.723Z,82.78
2022-11-08T07:57:33.304Z,82.83
2022-11-08T07:58:29.857Z,82.44
2022-11-08T07:59:26.373Z,82.35
2022-11-08T08:00:22.902Z,81.22
2022-11-08T08:01:19.371Z,80.84
2022-11-08T08:02:16.143Z,80.84
2022-11-08T08:03:14.117Z,80.80
2022-11-08T08:04:12.237Z,81.32
2022-11-08T08:05:09.066Z,81.07
2022-11-08T08:06:05.586Z,80.28
2022-11-08T08:07:02.106Z,78.95
2022-11-08T08:07:59.390Z,77.52
2022-11-08T08:08:55.870Z,77.08
2022-11-08T08:09:52.352Z,76.34
2022-11-08T08:10:48.884Z,76.39
2022-11-08T08:11:45.374Z,76.11
2022-11-08T08:12:42.029Z,76.52
2022-11-08T08:13:38.604Z,75.91
2022-11-08T08:14:35.134Z,76.02
2022-11-08T08:15:32.013Z,76.10
2022-11-08T08:16:28.492Z,76.61
2022-11-08T08:17:24.972Z,76.08
2022-11-08T08:18:21.778Z,76.00
2022-11-08T08:19:18.261Z,75.13
2022-11-08T08:20:15.063Z,75.76
2022-11-08T08:21:11.494Z,77.49
2022-11-08T08:22:08.258Z,78.14
2022-11-08T08:23:05.859Z,78.66
2022-11-08T08:24:02.292Z,78.69
2022-11-08T08:25:02.860Z,78.36
2022-11-08T08:26:01.451Z,79.47
2022-11-08T08:26:57.989Z,79.51
2022-11-08T08:27:55.535Z,79.44
2022-11-08T08:28:52.004Z,79.74
2022-11-08T08:29:48.548Z,79.82
2022-11-08T08:30:45.031Z,80.60
2022-11-08T08:31:41.462Z,79.91
2022-11-08T08:32:37.899Z,79.77
2022-11-08T08:33:34.828Z,80.53
2022-11-08T08:34:31.509Z,80.33
2022-11-08T08:35:28.008Z,79.17
2022-11-08T08:36:24.490Z,78.56
2022-11-08T08:37:20.945Z,78.49
2022-11-08T08:38:17.725Z,78.66
2022-11-08T08:39:14.415Z,79.17
2022-11-08T08:40:11.202Z,79.77
2022-11-08T08:41:08.033Z,79.64
2022-11-08T08:42:04.488Z,80.16
2022-11-08T08:43:03.230Z,79.20
2022-11-08T08:43:59.786Z,79.07
2022-11-08T08:44:56.280Z,78.49
2022-11-08T08:45:52.829Z,79.18
2022-11-08T08:46:49.310Z,78.45
2022-11-08T08:47:50.413Z,77.96
2022-11-08T08:48:46.962Z,77.94
2022-11-08T08:49:43.444Z,77.97
2022-11-08T08:50:40.160Z,78.92
2022-11-08T08:51:36.669Z,79.29
2022-11-08T08:52:33.104Z,79.09
2022-11-08T08:53:29.651Z,79.11
2022-11-08T08:54:29.397Z,79.17
2022-11-08T08:55:28.933Z,77.87
2022-11-08T08:56:25.472Z,77.01
2022-11-08T08:57:21.918Z,77.85
2022-11-08T08:58:18.902Z,78.10
2022-11-08T09:01:48.987Z,79.05
2022-11-08T09:02:45.451Z,78.85
2022-11-08T09:03:42.030Z,78.37
2022-11-08T09:04:39.210Z,78.05
2022-11-08T09:05:35.804Z,77.77
2022-11-08T09:06:32.499Z,76.57
2022-11-08T09:07:29.020Z,76.18
2022-11-08T09:08:25.761Z,76.87
2022-11-08T09:09:22.769Z,77.86
2022-11-08T09:10:19.307Z,77.69
2022-11-08T09:11:15.871Z,77.23
2022-11-08T09:12:14.630Z,76.76
2022-11-08T09:13:11.372Z,76.46
2022-11-08T09:14:07.861Z,76.06
2022-11-08T09:15:05.258Z,76.74
2022-11-08T09:16:02.936Z,75.71
2022-11-08T09:16:59.473Z,75.10
2022-11-08T09:17:56.753Z,74.65
2022-11-08T09:18:53.404Z,73.83
2022-11-08T09:19:54.394Z,73.76
2022-11-08T09:20:56.211Z,74.78
2022-11-08T09:21:52.858Z,74.42
2022-11-08T09:22:49.411Z,74.34
2022-11-08T09:23:45.847Z,74.38
2022-11-08T09:24:42.268Z,74.25
2022-11-08T09:25:38.726Z,74.38
2022-11-08T09:26:35.207Z,75.04
2022-11-08T09:27:32.127Z,74.97
2022-11-08T09:28:31.660Z,74.09
2022-11-08T09:29:28.264Z,75.07
2022-11-08T09:30:24.911Z,74.76
2022-11-08T09:31:21.350Z,73.68
2022-11-08T09:32:28.744Z,72.49
2022-11-08T09:33:30.232Z,73.27
2022-11-08T09:34:26.742Z,73.46
2022-11-08T09:35:23.418Z,73.36
2022-11-08T09:36:19.954Z,73.72
2022-11-08T09:37:16.402Z,72.29
2022-11-08T09:38:12.906Z,72.73
2022-11-08T09:39:09.362Z,72.56
2022-11-08T09:40:06.125Z,72.02
2022-11-08T09:41:11.695Z,71.42
2022-11-08T09:42:11.161Z,71.73
2022-11-08T09:43:26.154Z,72.79
2022-11-08T09:44:41.405Z,72.63
2022-11-08T09:45:41.906Z,72.40
2022-11-08T09:46:43.255Z,72.73
2022-11-08T09:47:41.089Z,71.24
2022-11-08T09:48:40.368Z,71.59
2022-11-08T09:49:41.278Z,72.64
2022-11-08T09:50:39.624Z,70.79
2022-11-08T09:51:36.909Z,70.62
2022-11-08T09:52:34.890Z,70.72
2022-11-08T09:53:35.429Z,70.68
2022-11-08T09:54:35.035Z,70.07
2022-11-08T09:55:35.502Z,69.31
2022-11-08T09:56:34.637Z,69.58
2022-11-08T09:57:35.813Z,69.25
2022-11-08T09:58:32.240Z,70.23
2022-11-08T09:59:33.392Z,70.30
2022-11-08T10:00:29.984Z,70.58
2022-11-08T10:01:27.565Z,70.12
2022-11-08T10:02:24.555Z,71.90
2022-11-08T10:03:23.515Z,72.44
2022-11-08T10:04:22.427Z,72.36
2022-11-08T10:05:19.529Z,71.57
2022-11-08T10:06:31.420Z,71.33
2022-11-08T10:07:43.147Z,71.10
2022-11-08T10:08:42.489Z,70.93
2022-11-08T10:09:45.156Z,69.43
2022-11-08T10:10:55.400Z,68.25
2022-11-08T10:11:52.159Z,69.87
2022-11-08T10:12:53.793Z,70.15
2022-11-08T10:14:04.742Z,68.80
2022-11-08T10:15:13.565Z,68.65
2022-11-08T10:16:39.455Z,68.51
2022-11-08T10:17:54.418Z,68.90
2022-11-08T10:19:09.623Z,69.44
2022-11-08T10:20:33.078Z,68.81
2022-11-08T10:21:32.533Z,67.43
2022-11-08T10:22:35.642Z,68.32
2022-11-08T10:23:50.641Z,68.68
2022-11-08T10:25:05.815Z,65.89
2022-11-08T10:26:08.219Z,67.43
2022-11-08T10:27:11.221Z,66.18
2022-11-08T10:28:08.506Z,64.71
2022-11-08T10:29:09.282Z,65.48
2022-11-08T10:30:07.728Z,63.77
2022-11-08T10:31:04.311Z,62.83
2022-11-08T10:32:27.335Z,64.02
2022-11-08T10:33:29.155Z,65.01
2022-11-08T10:34:28.990Z,64.66
2022-11-08T10:35:31.162Z,64.63
2022-11-08T10:36:32.046Z,64.46
2022-11-08T10:37:28.661Z,64.19
2022-11-08T10:38:33.603Z,62.38
2022-11-08T10:39:34.373Z,64.02
2022-11-08T10:40:38.608Z,62.42
2022-11-08T10:41:38.253Z,63.26
2022-11-08T10:42:40.359Z,63.01
2022-11-08T10:43:47.009Z,62.75
2022-11-08T10:44:44.017Z,63.19
2022-11-08T10:45:40.646Z,62.27
2022-11-08T10:46:39.839Z,63.81
2022-11-08T10:47:37.142Z,65.69
2022-11-08T10:48:34.390Z,64.63
2022-11-08T10:49:33.583Z,64.65
2022-11-08T10:50:35.161Z,64.81
2022-11-08T10:51:31.752Z,64.87
2022-11-08T10:52:32.328Z,65.48
2022-11-08T10:53:30.044Z,65.01
2022-11-08T10:54:52.716Z,65.50
2022-11-08T10:55:51.031Z,64.71
2022-11-08T10:56:55.144Z,63.96
2022-11-08T10:57:51.602Z,64.44
2022-11-08T10:58:48.064Z,65.22
2022-11-08T10:59:45.167Z,66.20
2022-11-08T11:00:41.648Z,66.16
2022-11-08T11:01:44.873Z,65.12
2022-11-08T11:02:43.135Z,64.69
2022-11-08T11:03:39.669Z,65.98
2022-11-08T11:04:36.141Z,65.65
2022-11-08T11:05:36.925Z,66.49
2022-11-08T11:06:33.525Z,67.43
2022-11-08T11:07:34.740Z,67.22
2022-11-08T11:08:31.642Z,67.14
2022-11-08T11:09:28.371Z,66.42
2022-11-08T11:10:30.521Z,64.67
2022-11-08T11:11:35.057Z,64.29
2022-11-08T11:12:31.514Z,65.15
2022-11-08T11:13:28.648Z,64.49
2022-11-08T11:14:25.351Z,64.40
2022-11-08T11:15:21.802Z,65.08
2022-11-08T11:16:18.293Z,65.60
2022-11-08T11:17:16.794Z,65.11
2022-11-08T11:18:36.177Z,65.17
2022-11-08T11:19:32.674Z,64.42
2022-11-08T11:20:29.549Z,64.21
2022-11-08T11:21:26.053Z,63.69
2022-11-08T11:22:29.906Z,63.50
2022-11-08T11:23:37.419Z,64.04
2022-11-08T11:24:37.285Z,64.70
2022-11-08T11:25:33.793Z,64.96
2022-11-08T11:26:32.368Z,64.41
2022-11-08T11:27:31.201Z,63.96
2022-11-08T11:28:27.867Z,64.01
2022-11-08T11:29:27.078Z,63.07
2022-11-08T11:30:25.514Z,64.23
2022-11-08T11:31:21.985Z,64.16
2022-11-08T11:32:26.032Z,64.84
2022-11-08T11:33:26.765Z,64.57
2022-11-08T11:34:40.453Z,63.25
2022-11-08T11:36:10.685Z,62.41
2022-11-08T11:37:09.676Z,62.35
2022-11-08T11:38:07.915Z,61.66
2022-11-08T11:39:12.543Z,61.98
2022-11-08T11:40:09.123Z,61.67
2022-11-08T11:41:15.166Z,63.38
2022-11-08T11:42:39.346Z,63.44
2022-11-08T11:44:00.341Z,62.17
2022-11-08T11:45:06.393Z,62.01
2022-11-08T11:46:11.893Z,61.03
2022-11-08T11:47:28.637Z,61.27
2022-11-08T11:48:30.179Z,59.34
2022-11-08T11:49:29.208Z,59.57
2022-11-08T11:50:45.451Z,59.33
2022-11-08T11:51:41.989Z,61.88
2022-11-08T11:52:38.691Z,61.48
2022-11-08T11:53:38.815Z,60.37
2022-11-08T11:54:36.005Z,60.29
2022-11-08T11:55:42.694Z,59.78
2022-11-08T11:56:42.777Z,59.29
2022-11-08T11:57:44.918Z,59.28
2022-11-08T11:58:41.741Z,59.83
2022-11-08T11:59:56.545Z,59.13
2022-11-08T12:01:14.220Z,59.58
2022-11-08T12:02:30.179Z,57.50
2022-11-08T12:03:26.761Z,58.58
2022-11-08T12:04:32.625Z,59.87
2022-11-08T12:05:29.979Z,60.06
2022-11-08T12:06:26.547Z,60.17
2022-11-08T12:07:33.057Z,58.09
2022-11-08T12:08:41.469Z,57.08
2022-11-08T12:09:45.529Z,57.27
2022-11-08T12:10:42.000Z,56.74
2022-11-08T12:11:38.613Z,56.97
2022-11-08T12:12:50.496Z,56.88
2022-11-08T12:14:04.621Z,58.61
2022-11-08T12:15:13.165Z,59.08
2022-11-08T12:16:21.909Z,59.20
2022-11-08T12:17:37.087Z,60.88
2022-11-08T12:18:52.712Z,59.59
2022-11-08T12:20:08.165Z,58.45
2022-11-08T12:21:17.729Z,58.77
2022-11-08T12:22:22.249Z,58.11
2022-11-08T12:23:18.709Z,57.68
2022-11-08T12:24:30.409Z,57.29
2022-11-08T12:25:29.854Z,56.97
2022-11-08T12:26:41.918Z,57.78
2022-11-08T12:27:58.158Z,58.44
2022-11-08T12:29:13.214Z,58.19
2022-11-08T12:30:11.952Z,57.65
2022-11-08T12:31:15.269Z,57.07
2022-11-08T12:32:11.810Z,58.13
2022-11-08T12:33:16.917Z,57.67
2022-11-08T12:34:19.563Z,56.89
2022-11-08T12:35:25.925Z,56.80
2022-11-08T12:36:27.360Z,56.91
2022-11-08T12:37:23.794Z,57.18
2022-11-08T12:38:23.270Z,56.89
2022-11-08T12:39:23.520Z,57.58
2022-11-08T12:40:39.243Z,57.62
2022-11-08T12:41:35.742Z,57.71
2022-11-08T12:42:55.199Z,59.10